Time;durP1;ratioP1;P1;durP2;ratioP2;P2;SDS_P1;SDS_P2;PMS_P1;PMS_P2;Temp;Humidity;BMP_temperature;BMP_pressure;BME280_temperature;BME280_humidity;BME280_pressure;Samples;Min_cycle;Max_cycle;Signal;HPM_P1;HPM_P2
2022/06/23 00:02:06;;;;;;;18.80;16.98;;;22.00;99.90;;;;;;5030742;28;20186;-83
2022/06/23 00:04:39;;;;;;;20.25;18.45;;;22.00;99.90;;;;;;5033440;28;20184;-84
2022/06/23 00:07:20;;;;;;;16.50;15.20;;;21.90;99.90;;;;;;5034524;28;20756;-84
2022/06/23 00:09:45;;;;;;;20.50;18.98;;;21.80;99.40;;;;;;5041933;28;20337;-85
2022/06/23 00:12:31;;;;;;;17.83;16.27;;;21.80;99.90;;;;;;5038515;28;20306;-84
2022/06/23 00:15:02;;;;;;;17.80;16.63;;;21.70;99.90;;;;;;5044285;28;20177;-84
2022/06/23 00:17:54;;;;;;;19.25;17.73;;;21.70;99.90;;;;;;5041057;28;20429;-83
2022/06/23 00:20:32;;;;;;;17.05;15.77;;;21.80;99.90;;;;;;5039177;28;20243;-84
2022/06/23 00:23:40;;;;;;;18.73;17.00;;;21.80;99.40;;;;;;5034638;28;20236;-84
2022/06/23 00:26:18;;;;;;;17.42;16.02;;;22.00;98.70;;;;;;5034578;28;20193;-84
2022/06/23 00:28:46;;;;;;;16.08;14.68;;;21.90;97.50;;;;;;5040342;28;20207;-85
2022/06/23 00:31:29;;;;;;;19.52;18.00;;;22.00;97.80;;;;;;5035771;28;20193;-84
2022/06/23 00:33:57;;;;;;;17.23;16.02;;;22.10;98.50;;;;;;5035110;28;20208;-84
2022/06/23 00:36:36;;;;;;;16.77;15.40;;;22.10;99.00;;;;;;5037600;28;20260;-84
2022/06/23 00:39:04;;;;;;;18.52;16.88;;;22.00;98.10;;;;;;5033658;28;20254;-84
2022/06/23 00:41:36;;;;;;;17.27;15.95;;;22.00;98.70;;;;;;5031697;28;20174;-84
2022/06/23 00:44:13;;;;;;;17.88;16.58;;;21.90;98.50;;;;;;5032539;28;20206;-85
2022/06/23 00:46:47;;;;;;;18.08;16.58;;;21.80;99.90;;;;;;5042432;28;20179;-83
2022/06/23 00:49:19;;;;;;;16.52;15.38;;;21.70;99.90;;;;;;5037442;28;20379;-84
2022/06/23 00:51:59;;;;;;;17.95;16.55;;;21.70;99.90;;;;;;5034730;28;20177;-84
2022/06/23 00:54:35;;;;;;;16.30;14.98;;;21.80;99.90;;;;;;5033846;28;20188;-84
2022/06/23 00:57:13;;;;;;;18.30;16.80;;;21.70;99.80;;;;;;5034931;28;20655;-85
2022/06/23 00:59:49;;;;;;;17.60;16.27;;;21.80;99.60;;;;;;5028406;28;20212;-84
2022/06/23 01:02:19;;;;;;;17.33;16.00;;;21.80;99.90;;;;;;5026992;28;20673;-84
2022/06/23 01:05:00;;;;;;;17.55;16.25;;;21.80;99.90;;;;;;5031963;28;20185;-84
2022/06/23 01:08:04;;;;;;;18.10;16.80;;;21.70;99.50;;;;;;5033150;28;20300;-85
2022/06/23 01:10:45;;;;;;;18.17;16.83;;;21.60;99.90;;;;;;5037057;28;20236;-85
2022/06/23 01:13:19;;;;;;;18.73;17.33;;;21.50;99.90;;;;;;5033934;28;20183;-84
2022/06/23 01:15:50;;;;;;;16.05;14.80;;;21.50;99.90;;;;;;5030805;28;20567;-84
2022/06/23 01:18:21;;;;;;;17.05;15.93;;;21.40;99.90;;;;;;5030172;28;20217;-84
2022/06/23 01:21:01;;;;;;;16.65;15.52;;;21.50;99.90;;;;;;5035505;28;20271;-85
2022/06/23 01:23:51;;;;;;;17.50;16.23;;;21.60;99.60;;;;;;5035721;28;20180;-84
2022/06/23 01:26:19;;;;;;;19.02;17.65;;;21.70;99.60;;;;;;5026587;28;20261;-84
2022/06/23 01:28:45;;;;;;;17.27;15.98;;;21.60;99.40;;;;;;5037812;28;20213;-84
2022/06/23 01:31:28;;;;;;;17.25;15.98;;;21.60;99.50;;;;;;5029187;28;20189;-83
2022/06/23 01:34:04;;;;;;;17.42;16.02;;;21.60;99.20;;;;;;5027005;28;20813;-84
2022/06/23 01:36:39;;;;;;;17.98;16.58;;;21.60;99.50;;;;;;5036994;28;20207;-84
2022/06/23 01:39:26;;;;;;;18.88;17.20;;;21.60;99.90;;;;;;5025197;28;20247;-84
2022/06/23 01:41:56;;;;;;;16.67;15.40;;;21.50;99.90;;;;;;5026431;28;20228;-83
2022/06/23 01:44:53;;;;;;;17.48;16.08;;;21.50;99.90;;;;;;5037786;28;20169;-83
2022/06/23 01:47:35;;;;;;;18.05;16.65;;;21.50;99.60;;;;;;5025185;28;20204;-83
2022/06/23 01:50:36;;;;;;;17.38;15.98;;;21.40;99.80;;;;;;5028153;28;20205;-83
2022/06/23 01:53:27;;;;;;;15.73;14.63;;;21.30;99.20;;;;;;5030213;28;20652;-83
2022/06/23 01:56:19;;;;;;;15.43;14.32;;;21.30;98.80;;;;;;5028274;28;20176;-83
2022/06/23 01:58:51;;;;;;;15.55;14.35;;;21.40;97.90;;;;;;5030166;28;20582;-83
2022/06/23 02:01:34;;;;;;;17.52;16.23;;;21.30;98.10;;;;;;5039334;28;20182;-83
2022/06/23 02:04:23;;;;;;;15.90;14.75;;;21.30;98.30;;;;;;5034338;28;20181;-84
2022/06/23 02:06:55;;;;;;;14.20;13.10;;;21.30;97.90;;;;;;5035916;28;20284;-84
2022/06/23 02:09:52;;;;;;;15.48;14.07;;;21.30;97.50;;;;;;5032141;28;20703;-83
2022/06/23 02:12:27;;;;;;;15.60;14.35;;;21.30;97.10;;;;;;5018549;28;20206;-83
2022/06/23 02:15:05;;;;;;;15.55;14.25;;;21.40;97.00;;;;;;5035271;28;20177;-83
2022/06/23 02:17:54;;;;;;;17.42;16.05;;;21.40;96.20;;;;;;5042720;28;20694;-83
2022/06/23 02:20:38;;;;;;;14.98;13.85;;;21.30;96.80;;;;;;5033370;28;20209;-84
2022/06/23 02:23:22;;;;;;;15.55;14.45;;;21.20;96.30;;;;;;5039739;28;20179;-83
2022/06/23 02:26:10;;;;;;;15.68;14.52;;;21.30;96.70;;;;;;5037976;28;20184;-83
2022/06/23 02:29:01;;;;;;;14.90;13.80;;;21.20;96.30;;;;;;5024212;28;20221;-83
2022/06/23 02:31:52;;;;;;;14.65;13.60;;;21.20;96.00;;;;;;5034819;28;20604;-83
2022/06/23 02:34:33;;;;;;;14.90;13.70;;;21.20;96.00;;;;;;5036687;28;20259;-83
2022/06/23 02:37:26;;;;;;;14.43;13.43;;;21.10;96.40;;;;;;5042084;28;20192;-83
2022/06/23 02:39:55;;;;;;;13.43;12.57;;;21.20;95.70;;;;;;5033601;28;20205;-83
2022/06/23 02:42:21;;;;;;;15.35;14.23;;;21.20;95.50;;;;;;5044382;28;20244;-84
2022/06/23 02:45:11;;;;;;;14.18;13.27;;;21.20;95.40;;;;;;5042803;28;20691;-83
2022/06/23 02:48:13;;;;;;;15.48;14.40;;;21.20;94.80;;;;;;5040715;28;20181;-84
2022/06/23 02:50:53;;;;;;;14.07;13.07;;;21.30;95.20;;;;;;4984586;28;20202;-83
2022/06/23 02:53:56;;;;;;;13.93;12.93;;;21.20;94.80;;;;;;5038442;28;20184;-83
2022/06/23 02:56:49;;;;;;;15.18;14.05;;;21.30;94.20;;;;;;5053815;28;20211;-83
2022/06/23 02:59:33;;;;;;;14.82;13.82;;;21.20;94.90;;;;;;5044096;28;20217;-83
2022/06/23 03:02:17;;;;;;;14.35;13.35;;;21.20;94.80;;;;;;5030075;28;20181;-83
2022/06/23 03:05:12;;;;;;;14.50;13.50;;;21.10;94.80;;;;;;5028431;28;20656;-84
2022/06/23 03:08:01;;;;;;;13.60;12.57;;;21.00;94.60;;;;;;4975442;28;20294;-83
2022/06/23 03:10:36;;;;;;;14.43;13.43;;;21.00;94.50;;;;;;5027142;28;20200;-84
2022/06/23 03:13:23;;;;;;;14.95;13.95;;;21.00;95.40;;;;;;5025689;28;20187;-83
2022/06/23 03:15:51;;;;;;;15.55;14.52;;;21.00;94.70;;;;;;5029975;28;20180;-83
2022/06/23 03:18:55;;;;;;;17.33;16.05;;;21.00;94.70;;;;;;5026828;28;20292;-83
2022/06/23 03:21:25;;;;;;;16.58;15.35;;;21.00;94.70;;;;;;4997504;28;20216;-83
2022/06/23 03:24:05;;;;;;;16.67;15.45;;;20.90;95.60;;;;;;5028040;28;20807;-83
2022/06/23 03:26:45;;;;;;;15.52;14.30;;;20.90;95.90;;;;;;5028929;28;20185;-84
2022/06/23 03:29:32;;;;;;;16.75;15.35;;;20.80;95.90;;;;;;5026600;28;20215;-84
2022/06/23 03:32:41;;;;;;;16.15;14.95;;;20.80;95.40;;;;;;5024778;28;20197;-84
2022/06/23 03:35:41;;;;;;;16.83;15.65;;;20.90;96.10;;;;;;5032454;28;20770;-84
2022/06/23 03:38:15;;;;;;;15.98;14.65;;;20.80;96.50;;;;;;5027473;28;20287;-84
2022/06/23 03:43:39;;;;;;;16.30;15.00;;;20.70;96.30;;;;;;5025638;28;20612;-84
2022/06/23 03:46:19;;;;;;;14.90;13.70;;;20.70;95.80;;;;;;5031907;28;20188;-84
2022/06/23 03:48:45;;;;;;;15.38;14.27;;;20.70;96.30;;;;;;5027476;28;20364;-84
2022/06/23 03:51:20;;;;;;;17.65;16.15;;;20.70;95.80;;;;;;5031467;28;20636;-84
2022/06/23 03:53:49;;;;;;;16.30;15.05;;;20.70;95.20;;;;;;5026901;28;20216;-83
2022/06/23 03:56:19;;;;;;;14.95;13.90;;;20.50;97.00;;;;;;5021037;28;20271;-84
2022/06/23 03:59:05;;;;;;;15.15;14.05;;;20.40;96.80;;;;;;5029921;28;20237;-84
2022/06/23 04:01:40;;;;;;;14.65;13.55;;;20.50;96.80;;;;;;5026989;28;20307;-84
2022/06/23 04:04:14;;;;;;;15.18;13.88;;;20.50;96.80;;;;;;5026317;28;20232;-84
2022/06/23 04:06:42;;;;;;;13.57;12.68;;;20.50;97.30;;;;;;5024402;28;20181;-83
2022/06/23 04:09:27;;;;;;;12.70;11.80;;;20.60;96.80;;;;;;5028870;28;20208;-84
2022/06/23 04:12:15;;;;;;;10.52;9.73;;;20.70;96.90;;;;;;5026402;28;20188;-84
2022/06/23 04:15:13;;;;;;;10.50;9.80;;;20.80;96.50;;;;;;5024130;28;20201;-84
2022/06/23 04:17:44;;;;;;;13.23;12.15;;;20.90;96.70;;;;;;5015619;28;20711;-84
2022/06/23 04:20:12;;;;;;;11.32;10.55;;;20.80;96.50;;;;;;5023029;28;20216;-83
2022/06/23 04:22:49;;;;;;;11.98;11.07;;;20.80;96.10;;;;;;5028395;28;20200;-84
2022/06/23 04:25:24;;;;;;;10.13;9.25;;;20.90;96.10;;;;;;5020822;28;20182;-84
2022/06/23 04:27:57;;;;;;;10.48;9.57;;;21.00;95.90;;;;;;5025241;28;20181;-83
2022/06/23 04:30:33;;;;;;;10.18;9.45;;;20.90;96.50;;;;;;5029492;28;20176;-83
2022/06/23 04:33:03;;;;;;;10.55;9.55;;;21.00;95.90;;;;;;5037077;28;20189;-84
2022/06/23 04:35:36;;;;;;;10.93;10.00;;;21.10;95.50;;;;;;5035526;28;20210;-83
2022/06/23 04:38:12;;;;;;;10.23;8.90;;;21.10;96.60;;;;;;5030385;28;20199;-83
2022/06/23 04:40:41;;;;;;;9.48;8.68;;;21.00;96.80;;;;;;5026397;28;20199;-83
2022/06/23 04:43:16;;;;;;;9.40;8.60;;;21.10;97.10;;;;;;5030065;28;20207;-83
2022/06/23 04:46:16;;;;;;;9.90;9.00;;;21.10;97.50;;;;;;5030932;28;20173;-83
2022/06/23 04:48:56;;;;;;;13.70;8.98;;;21.00;97.30;;;;;;4995809;28;20771;-83
2022/06/23 04:51:33;;;;;;;9.20;8.43;;;21.00;98.10;;;;;;5030573;28;20197;-83
2022/06/23 04:54:15;;;;;;;9.40;8.60;;;21.00;97.70;;;;;;5028144;28;20242;-83
2022/06/23 04:56:43;;;;;;;8.23;7.50;;;20.90;98.20;;;;;;5027125;28;20304;-83
2022/06/23 04:59:12;;;;;;;8.27;7.60;;;21.00;97.70;;;;;;5027293;28;20213;-83
2022/06/23 05:01:41;;;;;;;9.50;8.57;;;21.10;97.70;;;;;;5030789;28;20181;-83
2022/06/23 05:04:17;;;;;;;9.18;8.32;;;21.10;98.10;;;;;;5028273;28;20173;-83
2022/06/23 05:06:50;;;;;;;8.93;8.10;;;21.20;97.20;;;;;;5030851;28;20201;-83
2022/06/23 05:09:30;;;;;;;10.30;9.40;;;21.30;97.60;;;;;;5030994;28;20276;-83
2022/06/23 05:12:03;;;;;;;10.35;9.23;;;21.30;97.70;;;;;;5033246;28;20186;-83
2022/06/23 05:14:42;;;;;;;8.82;7.93;;;21.30;97.80;;;;;;5037384;28;20208;-83
2022/06/23 05:17:18;;;;;;;8.60;7.90;;;21.30;97.50;;;;;;5028223;28;20184;-83
2022/06/23 05:19:44;;;;;;;8.90;8.10;;;21.40;97.00;;;;;;5029459;28;20244;-83
2022/06/23 05:22:18;;;;;;;10.18;8.10;;;21.40;97.10;;;;;;5024503;28;20177;-83
2022/06/23 05:24:46;;;;;;;10.07;8.70;;;21.50;96.50;;;;;;5026220;28;20184;-83
2022/06/23 05:27:28;;;;;;;12.15;7.97;;;21.30;97.30;;;;;;5025781;28;20212;-83
2022/06/23 05:30:15;;;;;;;9.55;8.55;;;21.20;98.20;;;;;;5030573;28;20226;-83
2022/06/23 05:32:48;;;;;;;10.32;8.05;;;21.10;99.00;;;;;;5028063;28;20413;-83
2022/06/23 05:35:25;;;;;;;9.52;8.40;;;21.10;98.90;;;;;;5028287;28;20248;-83
2022/06/23 05:38:00;;;;;;;9.10;7.95;;;21.10;99.60;;;;;;5035836;28;20209;-83
2022/06/23 05:40:40;;;;;;;8.35;7.55;;;21.10;99.10;;;;;;5039702;28;20177;-83
2022/06/23 05:43:08;;;;;;;7.45;6.65;;;21.20;98.20;;;;;;5040687;28;20173;-83
2022/06/23 05:45:42;;;;;;;8.65;7.78;;;21.30;98.60;;;;;;5039490;28;20208;-83
2022/06/23 05:48:15;;;;;;;9.20;8.18;;;21.40;97.80;;;;;;5037645;28;20181;-83
2022/06/23 05:50:56;;;;;;;8.77;8.00;;;21.20;99.10;;;;;;5036602;28;20207;-83
2022/06/23 05:53:50;;;;;;;8.73;7.65;;;21.20;99.20;;;;;;5032017;28;20192;-84
2022/06/23 05:56:48;;;;;;;9.32;7.70;;;21.20;98.00;;;;;;5032913;28;20192;-85
2022/06/23 05:59:47;;;;;;;9.77;8.20;;;21.30;98.40;;;;;;5029868;28;20229;-84
2022/06/23 06:02:19;;;;;;;9.05;8.25;;;21.40;99.20;;;;;;5034654;28;20169;-83
2022/06/23 06:04:54;;;;;;;9.32;8.35;;;21.20;98.90;;;;;;5028317;28;20679;-83
2022/06/23 06:07:26;;;;;;;11.48;7.47;;;21.40;97.70;;;;;;5026454;28;20188;-84
2022/06/23 06:09:54;;;;;;;9.90;7.95;;;21.70;97.40;;;;;;5027574;28;20215;-84
2022/06/23 06:12:24;;;;;;;8.52;7.63;;;21.70;97.10;;;;;;5024829;28;20182;-84
2022/06/23 06:15:05;;;;;;;8.60;7.38;;;21.80;96.30;;;;;;5026434;28;20185;-83
2022/06/23 06:17:33;;;;;;;10.90;8.75;;;21.90;95.90;;;;;;5024871;28;20182;-84
2022/06/23 06:20:05;;;;;;;10.00;8.95;;;22.00;96.10;;;;;;5027500;28;20284;-82
2022/06/23 06:22:37;;;;;;;8.50;7.72;;;22.10;96.20;;;;;;5025250;28;20308;-83
2022/06/23 06:25:06;;;;;;;12.77;8.02;;;22.20;95.10;;;;;;5027740;28;20583;-82
2022/06/23 06:27:31;;;;;;;8.88;7.95;;;22.30;94.60;;;;;;5024925;28;20216;-83
2022/06/23 06:29:57;;;;;;;8.73;7.95;;;22.30;95.00;;;;;;5026345;28;20201;-83
2022/06/23 06:32:39;;;;;;;9.10;8.25;;;22.40;94.10;;;;;;5025275;28;20185;-83
2022/06/23 06:35:42;;;;;;;8.45;7.75;;;22.40;95.20;;;;;;5027373;28;20683;-83
2022/06/23 06:38:16;;;;;;;8.40;7.18;;;22.50;93.80;;;;;;5023824;28;20287;-83
2022/06/23 06:40:44;;;;;;;10.00;8.27;;;22.50;92.70;;;;;;5026030;28;20190;-83
2022/06/23 06:43:15;;;;;;;8.82;8.00;;;22.50;93.70;;;;;;5024339;28;20194;-84
2022/06/23 06:45:41;;;;;;;8.32;7.70;;;22.50;94.30;;;;;;5024514;28;20196;-84
2022/06/23 06:48:19;;;;;;;8.90;8.07;;;22.50;95.30;;;;;;5024925;28;20189;-84
2022/06/23 06:50:49;;;;;;;8.93;8.10;;;22.60;93.30;;;;;;5024045;28;20284;-84
2022/06/23 06:53:32;;;;;;;8.98;7.93;;;22.50;93.40;;;;;;5024538;28;20191;-87
2022/06/23 06:56:26;;;;;;;8.85;8.05;;;22.70;93.70;;;;;;5021793;28;20185;-85
2022/06/23 06:59:10;;;;;;;8.95;8.05;;;22.50;94.70;;;;;;5014282;28;20241;-84
2022/06/23 07:01:38;;;;;;;7.70;7.03;;;22.60;94.40;;;;;;5043752;28;20690;-85
2022/06/23 07:04:04;;;;;;;8.20;7.50;;;22.70;94.20;;;;;;5023058;28;20644;-84
2022/06/23 07:06:39;;;;;;;8.82;7.93;;;22.80;94.20;;;;;;5021367;28;20248;-84
2022/06/23 07:09:36;;;;;;;8.65;7.82;;;22.90;94.00;;;;;;5025152;28;20616;-84
2022/06/23 07:12:31;;;;;;;8.43;7.72;;;23.00;92.60;;;;;;5013727;28;20284;-83
2022/06/23 07:15:26;;;;;;;9.20;8.38;;;22.90;93.20;;;;;;5023350;28;20240;-83
2022/06/23 07:18:23;;;;;;;9.07;8.02;;;22.90;93.00;;;;;;5024245;28;20223;-84
2022/06/23 07:21:12;;;;;;;8.93;7.45;;;23.00;92.30;;;;;;5024460;28;20205;-84
2022/06/23 07:23:49;;;;;;;8.82;7.55;;;23.10;93.20;;;;;;5024086;28;20444;-83
2022/06/23 07:26:22;;;;;;;8.02;7.22;;;23.10;92.70;;;;;;5023772;28;20260;-84
2022/06/23 07:28:53;;;;;;;9.55;7.93;;;23.10;92.60;;;;;;5022950;28;20210;-84
2022/06/23 07:31:45;;;;;;;8.30;7.50;;;23.30;91.30;;;;;;5023329;28;20193;-84
2022/06/23 07:34:13;;;;;;;9.23;7.75;;;23.50;90.10;;;;;;5025487;28;20196;-84
2022/06/23 07:36:57;;;;;;;9.05;8.05;;;23.60;89.50;;;;;;5024938;28;20194;-84
2022/06/23 07:39:29;;;;;;;10.27;9.02;;;23.80;88.90;;;;;;5025248;28;20774;-83
2022/06/23 07:42:40;;;;;;;9.20;8.32;;;23.90;87.40;;;;;;5025344;28;20272;-84
2022/06/23 07:45:19;;;;;;;9.60;8.90;;;24.00;86.80;;;;;;5025481;28;20651;-84
2022/06/23 07:47:45;;;;;;;10.05;9.07;;;24.10;86.00;;;;;;5022294;28;20193;-84
2022/06/23 07:50:11;;;;;;;11.02;10.13;;;24.20;84.70;;;;;;5021235;28;20217;-84
2022/06/23 07:52:37;;;;;;;9.57;8.98;;;24.20;83.10;;;;;;5022966;28;20196;-85
2022/06/23 07:55:03;;;;;;;10.02;9.30;;;24.20;84.20;;;;;;5021234;28;20199;-85
2022/06/23 07:57:31;;;;;;;10.13;9.10;;;24.30;84.50;;;;;;5024089;28;20197;-84
2022/06/23 08:00:06;;;;;;;10.15;9.15;;;24.40;83.20;;;;;;5023825;28;20220;-84
2022/06/23 08:02:41;;;;;;;9.75;8.32;;;24.50;82.10;;;;;;5026967;28;20181;-85
2022/06/23 08:05:19;;;;;;;9.15;7.97;;;24.60;81.50;;;;;;5029779;28;20187;-84
2022/06/23 08:07:45;;;;;;;9.40;8.25;;;24.70;80.60;;;;;;5021959;28;20185;-84
2022/06/23 08:10:16;;;;;;;7.40;6.90;;;24.80;79.80;;;;;;5026412;28;20226;-84
2022/06/23 08:12:57;;;;;;;8.20;6.68;;;24.90;78.20;;;;;;5022217;28;20184;-84
2022/06/23 08:18:28;;;;;;;7.70;6.68;;;24.90;78.90;;;;;;5029719;28;20223;-84
2022/06/23 08:21:01;;;;;;;7.97;7.18;;;24.80;76.90;;;;;;5024919;28;20671;-84
2022/06/23 08:23:30;;;;;;;8.05;7.28;;;24.80;76.20;;;;;;5025665;28;20529;-84
2022/06/23 08:25:57;;;;;;;7.38;6.78;;;24.80;76.90;;;;;;5024439;28;20190;-85
2022/06/23 08:28:22;;;;;;;7.72;6.70;;;24.90;77.60;;;;;;5033043;28;20212;-84
2022/06/23 08:30:48;;;;;;;8.35;6.68;;;25.10;76.00;;;;;;5029196;28;20188;-84
2022/06/23 08:33:15;;;;;;;8.43;6.43;;;25.20;75.20;;;;;;5030615;28;20798;-84
2022/06/23 08:35:42;;;;;;;7.38;6.70;;;25.40;73.40;;;;;;5027183;28;20216;-84
2022/06/23 08:38:21;;;;;;;7.97;7.05;;;25.60;73.80;;;;;;5030082;28;20700;-84
2022/06/23 08:41:21;;;;;;;9.00;8.15;;;25.80;73.40;;;;;;5037180;28;20742;-84
2022/06/23 08:43:52;;;;;;;8.55;7.68;;;26.10;72.30;;;;;;5020435;28;20194;-84
2022/06/23 08:46:43;;;;;;;13.50;8.52;;;26.10;71.50;;;;;;5025601;28;20193;-84
2022/06/23 08:49:23;;;;;;;8.52;7.72;;;26.00;72.70;;;;;;5026854;28;20744;-84
2022/06/23 08:51:59;;;;;;;13.70;7.95;;;25.90;71.00;;;;;;5030274;28;20510;-84
2022/06/23 08:54:47;;;;;;;8.40;7.70;;;26.00;72.00;;;;;;5025595;28;20185;-84
2022/06/23 08:57:22;;;;;;;10.65;7.82;;;26.20;71.20;;;;;;5027005;28;20776;-84
2022/06/23 08:59:52;;;;;;;9.70;8.82;;;26.40;71.50;;;;;;5026335;28;20216;-84
2022/06/23 09:02:40;;;;;;;10.45;8.23;;;26.50;70.60;;;;;;5029953;28;20186;-84
2022/06/23 09:05:36;;;;;;;9.15;8.35;;;26.60;68.80;;;;;;5023925;28;20652;-84
2022/06/23 09:08:21;;;;;;;9.93;8.93;;;26.70;66.60;;;;;;5026463;28;20328;-84
2022/06/23 09:11:12;;;;;;;10.48;9.48;;;26.60;68.50;;;;;;5030040;28;20265;-84
2022/06/23 09:13:45;;;;;;;11.15;9.55;;;26.60;67.80;;;;;;5035312;28;20180;-84
2022/06/23 09:16:40;;;;;;;10.38;9.60;;;26.50;69.00;;;;;;5030624;28;20181;-85
2022/06/23 09:19:17;;;;;;;10.90;9.90;;;26.90;69.60;;;;;;4994509;28;20240;-84
2022/06/23 09:21:51;;;;;;;11.60;10.35;;;27.10;66.90;;;;;;5029401;28;20274;-84
2022/06/23 09:24:23;;;;;;;11.40;10.57;;;27.10;67.50;;;;;;5031563;28;20180;-84
2022/06/23 09:27:01;;;;;;;12.77;11.65;;;27.40;67.90;;;;;;5027331;28;20328;-84
2022/06/23 09:29:35;;;;;;;12.80;11.63;;;27.50;66.70;;;;;;5027865;28;20197;-85
2022/06/23 09:32:26;;;;;;;12.80;11.70;;;27.60;64.60;;;;;;5028674;28;20177;-85
2022/06/23 09:35:16;;;;;;;13.85;12.98;;;27.50;66.40;;;;;;4997805;28;20257;-85
2022/06/23 09:38:08;;;;;;;13.20;12.02;;;27.90;62.70;;;;;;5028016;28;20196;-84
2022/06/23 09:40:44;;;;;;;13.88;12.85;;;28.00;62.70;;;;;;5021967;28;20192;-84
2022/06/23 09:43:35;;;;;;;14.25;13.10;;;28.30;62.10;;;;;;5042923;28;20236;-84
2022/06/23 09:46:36;;;;;;;15.15;13.90;;;28.40;60.50;;;;;;5037279;28;20204;-84
2022/06/23 09:49:23;;;;;;;14.75;13.65;;;28.50;59.50;;;;;;4984268;28;20210;-84
2022/06/23 09:52:02;;;;;;;15.30;14.23;;;28.60;60.20;;;;;;5039962;28;20205;-84
2022/06/23 09:54:57;;;;;;;14.25;13.30;;;28.70;59.50;;;;;;5033537;28;20185;-84
2022/06/23 09:57:35;;;;;;;13.80;12.98;;;28.50;59.00;;;;;;5027798;28;20207;-84
2022/06/23 10:00:12;;;;;;;14.45;12.82;;;28.60;60.80;;;;;;5038680;28;20217;-84
2022/06/23 10:02:44;;;;;;;15.65;14.43;;;28.70;58.80;;;;;;5029488;28;20289;-85
2022/06/23 10:05:18;;;;;;;14.98;13.95;;;29.00;56.90;;;;;;5044306;28;20192;-84
2022/06/23 10:08:08;;;;;;;17.00;15.68;;;29.20;57.20;;;;;;5036524;28;20279;-85
2022/06/23 10:11:19;;;;;;;14.35;13.40;;;29.60;56.20;;;;;;5049792;28;20250;-84
2022/06/23 10:14:20;;;;;;;15.15;14.02;;;29.30;56.50;;;;;;4964506;28;20183;-84
2022/06/23 10:17:05;;;;;;;14.77;13.50;;;28.80;58.20;;;;;;5022201;28;20291;-84
2022/06/23 10:19:37;;;;;;;14.55;13.48;;;28.80;60.00;;;;;;5033966;28;20204;-85
2022/06/23 10:22:44;;;;;;;16.50;15.40;;;29.20;59.90;;;;;;5039379;28;20177;-84
2022/06/23 10:25:40;;;;;;;16.85;15.68;;;29.70;54.70;;;;;;5009613;28;20279;-84
2022/06/23 10:28:33;;;;;;;16.20;15.10;;;30.10;53.90;;;;;;5037703;28;20208;-84
2022/06/23 10:31:11;;;;;;;15.85;14.75;;;30.40;53.50;;;;;;5034821;28;20188;-84
2022/06/23 10:33:57;;;;;;;17.98;16.58;;;30.50;52.70;;;;;;5034169;28;20726;-84
2022/06/23 10:36:59;;;;;;;15.45;14.38;;;30.50;53.10;;;;;;5036816;28;20181;-85
2022/06/23 10:40:01;;;;;;;15.85;14.77;;;30.70;52.00;;;;;;5034911;28;20220;-85
2022/06/23 10:42:47;;;;;;;14.77;13.93;;;30.80;52.00;;;;;;5034706;28;20177;-85
2022/06/23 10:45:33;;;;;;;15.07;13.88;;;31.10;51.50;;;;;;5033324;28;20180;-84
2022/06/23 10:48:33;;;;;;;14.35;13.25;;;31.30;50.90;;;;;;5042801;28;20215;-84
2022/06/23 10:51:06;;;;;;;13.35;12.32;;;31.40;50.20;;;;;;5034883;28;20188;-84
2022/06/23 10:53:49;;;;;;;11.82;10.93;;;31.40;49.40;;;;;;5028025;28;20622;-84
2022/06/23 10:56:37;;;;;;;11.27;10.38;;;31.20;49.70;;;;;;5024529;28;20702;-85
2022/06/23 10:59:20;;;;;;;11.90;11.05;;;31.20;49.40;;;;;;5025419;28;20251;-84
2022/06/23 11:01:55;;;;;;;11.75;10.77;;;31.20;49.20;;;;;;5034811;28;20183;-85
2022/06/23 11:04:38;;;;;;;12.38;11.48;;;31.30;50.50;;;;;;5032141;28;20587;-84
2022/06/23 11:07:25;;;;;;;11.55;10.70;;;31.50;49.90;;;;;;5037642;28;20181;-84
2022/06/23 11:09:53;;;;;;;11.23;10.18;;;31.20;50.20;;;;;;5027606;28;20205;-84
2022/06/23 11:12:48;;;;;;;11.52;10.50;;;31.50;48.60;;;;;;5028343;28;20208;-84
2022/06/23 11:15:50;;;;;;;11.18;10.32;;;32.00;47.30;;;;;;5026892;28;20189;-84
2022/06/23 11:18:37;;;;;;;16.63;10.75;;;32.00;47.10;;;;;;5028970;28;20216;-84
2022/06/23 11:21:11;;;;;;;11.40;10.10;;;31.40;48.20;;;;;;5032278;28;20227;-84
2022/06/23 11:23:59;;;;;;;10.70;9.98;;;31.70;47.70;;;;;;5028613;28;20185;-84
2022/06/23 11:26:24;;;;;;;11.23;10.43;;;31.80;47.20;;;;;;5030438;28;20181;-84
2022/06/23 11:29:08;;;;;;;11.70;10.60;;;32.10;47.90;;;;;;5029112;28;20251;-85
2022/06/23 11:31:53;;;;;;;11.57;10.45;;;32.30;46.80;;;;;;5029530;28;20181;-83
2022/06/23 11:34:47;;;;;;;11.43;10.82;;;32.40;46.50;;;;;;5029390;28;20227;-85
2022/06/23 11:37:24;;;;;;;11.70;10.52;;;32.80;42.90;;;;;;5029938;28;20221;-84
2022/06/23 11:40:08;;;;;;;12.00;11.05;;;32.50;43.70;;;;;;5027510;28;20216;-85
2022/06/23 11:42:59;;;;;;;12.45;11.55;;;32.90;43.40;;;;;;5030517;28;20177;-85
2022/06/23 11:45:55;;;;;;;13.43;11.95;;;33.20;43.20;;;;;;5028171;28;20181;-84
2022/06/23 11:48:32;;;;;;;13.55;12.45;;;33.70;41.50;;;;;;5031469;28;20205;-84
2022/06/23 11:51:43;;;;;;;12.73;11.88;;;33.60;42.10;;;;;;5032531;28;20238;-84
2022/06/23 11:54:35;;;;;;;13.32;12.30;;;33.70;42.40;;;;;;4999994;28;20200;-86
2022/06/23 11:57:25;;;;;;;14.00;12.45;;;33.80;41.60;;;;;;5028071;28;20182;-86
2022/06/23 11:59:59;;;;;;;13.30;12.13;;;33.80;41.20;;;;;;5035319;28;20207;-85
2022/06/23 12:02:24;;;;;;;15.18;13.90;;;33.90;41.40;;;;;;5065207;28;20189;-86
2022/06/23 12:05:38;;;;;;;14.38;13.07;;;34.10;39.50;;;;;;5056162;28;20214;-85
2022/06/23 12:08:19;;;;;;;15.90;14.82;;;34.20;39.20;;;;;;5002054;28;20254;-86
2022/06/23 12:10:45;;;;;;;16.90;15.75;;;34.70;38.20;;;;;;5035340;28;20275;-86
2022/06/23 12:13:10;;;;;;;16.33;14.98;;;34.30;38.20;;;;;;5040640;28;20201;-86
2022/06/23 12:15:42;;;;;;;15.90;14.65;;;34.80;37.60;;;;;;5032987;28;20266;-86
2022/06/23 12:18:19;;;;;;;16.85;15.40;;;35.00;37.50;;;;;;5039335;28;20995;-86
2022/06/23 12:21:13;;;;;;;16.40;14.95;;;35.40;37.20;;;;;;5033602;28;20212;-86
2022/06/23 12:23:42;;;;;;;17.42;16.23;;;35.40;36.70;;;;;;5034567;28;20177;-86
2022/06/23 12:26:34;;;;;;;16.80;15.65;;;35.70;35.80;;;;;;5034003;28;20190;-86
2022/06/23 12:29:14;;;;;;;17.33;16.25;;;35.80;36.10;;;;;;5024688;28;20294;-85
2022/06/23 12:31:58;;;;;;;15.85;14.52;;;35.60;36.00;;;;;;5026888;28;20667;-85
2022/06/23 12:34:45;;;;;;;15.85;14.90;;;35.50;36.80;;;;;;5033645;28;20223;-86
2022/06/23 12:37:41;;;;;;;15.98;14.70;;;35.50;36.80;;;;;;5022850;28;20192;-85
2022/06/23 12:40:27;;;;;;;17.25;16.05;;;35.50;36.80;;;;;;5028536;28;20228;-86
2022/06/23 12:43:06;;;;;;;16.02;14.75;;;35.70;35.60;;;;;;5034491;28;20586;-86
2022/06/23 12:46:02;;;;;;;12.80;11.70;;;35.50;35.00;;;;;;5031739;28;20227;-86
2022/06/23 12:48:40;;;;;;;11.93;10.75;;;34.70;36.20;;;;;;5030083;28;20231;-85
2022/06/23 12:51:26;;;;;;;12.18;11.07;;;34.50;36.50;;;;;;5033074;28;20177;-85
2022/06/23 12:54:30;;;;;;;13.68;12.68;;;34.40;37.40;;;;;;5031046;28;20180;-85
2022/06/23 12:57:01;;;;;;;12.63;11.68;;;34.80;36.40;;;;;;5020927;28;20193;-86
2022/06/23 12:59:37;;;;;;;13.27;12.00;;;35.20;36.20;;;;;;5030839;28;20279;-86
2022/06/23 13:02:15;;;;;;;13.45;12.25;;;35.10;36.80;;;;;;5032941;28;20164;-85
2022/06/23 13:04:59;;;;;;;11.93;11.13;;;35.10;38.00;;;;;;5030276;28;20184;-85
2022/06/23 13:07:45;;;;;;;12.57;11.32;;;34.20;38.60;;;;;;5031768;28;20201;-86
2022/06/23 13:10:27;;;;;;;13.70;12.32;;;33.90;39.00;;;;;;5030527;28;20212;-86
2022/06/23 13:13:06;;;;;;;13.95;13.00;;;33.80;38.90;;;;;;5034223;28;20185;-86
2022/06/23 13:16:03;;;;;;;14.23;12.85;;;33.80;39.40;;;;;;5030671;28;20228;-86
2022/06/23 13:18:42;;;;;;;13.50;12.38;;;33.90;38.30;;;;;;5033219;28;20217;-86
2022/06/23 13:21:21;;;;;;;14.38;13.20;;;34.00;38.90;;;;;;5033293;28;20196;-86
2022/06/23 13:24:03;;;;;;;14.68;13.55;;;34.20;38.90;;;;;;5034289;28;20655;-86
2022/06/23 13:26:34;;;;;;;14.60;13.32;;;34.30;38.50;;;;;;5030959;28;20244;-85
2022/06/23 13:29:12;;;;;;;14.93;13.65;;;34.20;39.90;;;;;;5031936;28;20239;-86
2022/06/23 13:31:51;;;;;;;14.65;13.45;;;34.60;38.90;;;;;;5029617;28;20651;-86
2022/06/23 13:34:27;;;;;;;14.93;13.52;;;35.20;38.50;;;;;;5030462;28;20793;-86
2022/06/23 13:37:17;;;;;;;13.30;11.95;;;35.70;35.40;;;;;;5031522;28;20239;-86
2022/06/23 13:39:52;;;;;;;12.55;11.35;;;35.70;34.90;;;;;;5030178;28;20314;-86
2022/06/23 13:42:21;;;;;;;13.50;12.20;;;35.50;35.40;;;;;;5030340;28;20230;-86
2022/06/23 13:45:17;;;;;;;12.45;11.27;;;35.30;36.20;;;;;;5030882;28;20255;-86
2022/06/23 13:47:51;;;;;;;12.32;11.40;;;35.40;35.80;;;;;;5033665;28;20212;-86